sensor_id;sensor_type;location;lat;lon;timestamp;temperature;humidity
1301;DHT22;59099;48.806;9.160;2023-01-20T00:00:41;0.00;99.90
1301;DHT22;59099;48.806;9.160;2023-01-20T00:03:06;-0.10;99.90
1301;DHT22;59099;48.806;9.160;2023-01-20T00:05:32;0.00;99.90
1301;DHT22;59099;48.806;9.160;2023-01-20T00:07:58;0.00;99.90
1301;DHT22;59099;48.806;9.160;2023-01-20T00:10:26;0.10;99.90
1301;DHT22;59099;48.806;9.160;2023-01-20T00:12:54;0.10;99.90
1301;DHT22;59099;48.806;9.160;2023-01-20T00:15:20;0.10;99.90
1301;DHT22;59099;48.806;9.160;2023-01-20T00:17:47;0.20;99.90
1301;DHT22;59099;48.806;9.160;2023-01-20T00:20:18;0.20;99.90
1301;DHT22;59099;48.806;9.160;2023-01-20T00:22:53;0.20;99.90
1301;DHT22;59099;48.806;9.160;2023-01-20T00:25:36;0.30;99.90
1301;DHT22;59099;48.806;9.160;2023-01-20T00:28:03;0.20;99.90
1301;DHT22;59099;48.806;9.160;2023-01-20T00:30:29;0.20;99.90
1301;DHT22;59099;48.806;9.160;2023-01-20T00:32:55;0.20;99.90
1301;DHT22;59099;48.806;9.160;2023-01-20T00:35:21;0.20;99.90
1301;DHT22;59099;48.806;9.160;2023-01-20T00:37:47;0.20;99.90
1301;DHT22;59099;48.806;9.160;2023-01-20T00:40:13;0.20;99.90
1301;DHT22;59099;48.806;9.160;2023-01-20T00:42:39;0.20;99.90
1301;DHT22;59099;48.806;9.160;2023-01-20T00:45:05;0.10;99.90
1301;DHT22;59099;48.806;9.160;2023-01-20T00:47:31;0.20;99.90
1301;DHT22;59099;48.806;9.160;2023-01-20T00:49:57;0.10;99.90
1301;DHT22;59099;48.806;9.160;2023-01-20T00:52:23;0.20;99.90
1301;DHT22;59099;48.806;9.160;2023-01-20T00:57:30;0.20;99.90
1301;DHT22;59099;48.806;9.160;2023-01-20T00:59:56;0.10;99.90
1301;DHT22;59099;48.806;9.160;2023-01-20T01:02:22;0.10;99.90
1301;DHT22;59099;48.806;9.160;2023-01-20T01:04:50;0.10;99.90
1301;DHT22;59099;48.806;9.160;2023-01-20T01:07:17;0.10;99.90
1301;DHT22;59099;48.806;9.160;2023-01-20T01:09:43;0.10;99.90
1301;DHT22;59099;48.806;9.160;2023-01-20T01:12:09;0.20;99.90
1301;DHT22;59099;48.806;9.160;2023-01-20T01:14:34;0.10;99.90
1301;DHT22;59099;48.806;9.160;2023-01-20T01:17:00;0.10;99.90
1301;DHT22;59099;48.806;9.160;2023-01-20T01:19:26;0.10;99.90
1301;DHT22;59099;48.806;9.160;2023-01-20T01:21:53;0.00;99.90
1301;DHT22;59099;48.806;9.160;2023-01-20T01:24:21;0.00;99.90
1301;DHT22;59099;48.806;9.160;2023-01-20T01:26:51;0.10;99.90
1301;DHT22;59099;48.806;9.160;2023-01-20T01:29:17;0.10;99.90
1301;DHT22;59099;48.806;9.160;2023-01-20T01:31:43;0.20;99.90
1301;DHT22;59099;48.806;9.160;2023-01-20T01:34:09;0.20;99.90
1301;DHT22;59099;48.806;9.160;2023-01-20T01:36:35;0.10;99.90
1301;DHT22;59099;48.806;9.160;2023-01-20T01:39:01;0.10;99.90
1301;DHT22;59099;48.806;9.160;2023-01-20T01:41:27;0.10;99.90
1301;DHT22;59099;48.806;9.160;2023-01-20T01:44:19;0.20;99.90
1301;DHT22;59099;48.806;9.160;2023-01-20T01:46:45;0.20;99.90
1301;DHT22;59099;48.806;9.160;2023-01-20T01:49:29;0.20;99.90
1301;DHT22;59099;48.806;9.160;2023-01-20T01:52:07;0.30;99.90
1301;DHT22;59099;48.806;9.160;2023-01-20T01:54:36;0.20;99.90
1301;DHT22;59099;48.806;9.160;2023-01-20T01:57:05;0.30;99.90
1301;DHT22;59099;48.806;9.160;2023-01-20T01:59:32;0.30;99.90
1301;DHT22;59099;48.806;9.160;2023-01-20T02:01:58;0.20;99.90
1301;DHT22;59099;48.806;9.160;2023-01-20T02:04:26;0.20;99.90
1301;DHT22;59099;48.806;9.160;2023-01-20T02:07:02;0.20;99.90
1301;DHT22;59099;48.806;9.160;2023-01-20T02:09:29;0.30;99.90
1301;DHT22;59099;48.806;9.160;2023-01-20T02:12:01;0.30;99.90
1301;DHT22;59099;48.806;9.160;2023-01-20T02:14:49;0.20;99.90
1301;DHT22;59099;48.806;9.160;2023-01-20T02:23:38;0.30;99.90
1301;DHT22;59099;48.806;9.160;2023-01-20T02:29:06;0.40;99.90
1301;DHT22;59099;48.806;9.160;2023-01-20T02:34:28;0.50;99.90
1301;DHT22;59099;48.806;9.160;2023-01-20T02:37:05;0.50;99.90
1301;DHT22;59099;48.806;9.160;2023-01-20T02:42:30;0.60;99.90
1301;DHT22;59099;48.806;9.160;2023-01-20T02:45:07;0.60;99.90
1301;DHT22;59099;48.806;9.160;2023-01-20T02:50:39;0.60;99.90
1301;DHT22;59099;48.806;9.160;2023-01-20T02:53:06;0.50;99.90
1301;DHT22;59099;48.806;9.160;2023-01-20T02:55:53;0.50;99.90
1301;DHT22;59099;48.806;9.160;2023-01-20T02:58:38;0.50;99.90
1301;DHT22;59099;48.806;9.160;2023-01-20T03:01:10;0.50;99.90
1301;DHT22;59099;48.806;9.160;2023-01-20T03:03:39;0.60;99.90
1301;DHT22;59099;48.806;9.160;2023-01-20T03:06:20;0.50;99.90
1301;DHT22;59099;48.806;9.160;2023-01-20T03:08:49;0.60;99.90
1301;DHT22;59099;48.806;9.160;2023-01-20T03:11:17;0.60;99.90
1301;DHT22;59099;48.806;9.160;2023-01-20T03:13:49;0.60;99.90
1301;DHT22;59099;48.806;9.160;2023-01-20T03:16:22;0.60;99.90
1301;DHT22;59099;48.806;9.160;2023-01-20T03:18:50;0.60;99.90
1301;DHT22;59099;48.806;9.160;2023-01-20T03:21:19;0.60;99.90
1301;DHT22;59099;48.806;9.160;2023-01-20T03:23:51;0.70;99.90
1301;DHT22;59099;48.806;9.160;2023-01-20T03:26:19;0.80;99.90
1301;DHT22;59099;48.806;9.160;2023-01-20T03:28:46;0.80;99.90
1301;DHT22;59099;48.806;9.160;2023-01-20T03:31:17;0.80;99.90
1301;DHT22;59099;48.806;9.160;2023-01-20T03:33:46;0.80;99.90
1301;DHT22;59099;48.806;9.160;2023-01-20T03:36:14;0.80;99.90
1301;DHT22;59099;48.806;9.160;2023-01-20T03:38:42;0.80;99.90
1301;DHT22;59099;48.806;9.160;2023-01-20T03:41:23;0.80;99.90
1301;DHT22;59099;48.806;9.160;2023-01-20T03:44:01;0.80;99.90
1301;DHT22;59099;48.806;9.160;2023-01-20T03:46:37;0.80;99.90
1301;DHT22;59099;48.806;9.160;2023-01-20T03:54:49;0.90;99.90
1301;DHT22;59099;48.806;9.160;2023-01-20T03:57:20;0.90;99.90
1301;DHT22;59099;48.806;9.160;2023-01-20T04:00:20;0.80;99.90
1301;DHT22;59099;48.806;9.160;2023-01-20T04:03:05;0.80;99.90
1301;DHT22;59099;48.806;9.160;2023-01-20T04:05:34;0.80;99.90
1301;DHT22;59099;48.806;9.160;2023-01-20T04:08:04;0.70;99.90
1301;DHT22;59099;48.806;9.160;2023-01-20T04:10:34;0.70;99.90
1301;DHT22;59099;48.806;9.160;2023-01-20T04:13:01;0.70;99.90
1301;DHT22;59099;48.806;9.160;2023-01-20T04:15:28;0.80;99.90
1301;DHT22;59099;48.806;9.160;2023-01-20T04:18:09;0.80;99.90
1301;DHT22;59099;48.806;9.160;2023-01-20T04:20:35;0.80;99.90
1301;DHT22;59099;48.806;9.160;2023-01-20T04:23:01;0.70;99.90
1301;DHT22;59099;48.806;9.160;2023-01-20T04:25:30;0.80;99.90
1301;DHT22;59099;48.806;9.160;2023-01-20T04:27:56;0.70;99.90
1301;DHT22;59099;48.806;9.160;2023-01-20T04:30:22;0.80;99.90
1301;DHT22;59099;48.806;9.160;2023-01-20T04:32:48;0.70;99.90
1301;DHT22;59099;48.806;9.160;2023-01-20T04:35:16;0.80;99.90
1301;DHT22;59099;48.806;9.160;2023-01-20T04:37:42;0.60;99.90
1301;DHT22;59099;48.806;9.160;2023-01-20T04:40:09;0.50;99.90
1301;DHT22;59099;48.806;9.160;2023-01-20T04:42:35;0.50;99.90
1301;DHT22;59099;48.806;9.160;2023-01-20T04:45:01;0.50;99.90
1301;DHT22;59099;48.806;9.160;2023-01-20T04:47:31;0.50;99.90
1301;DHT22;59099;48.806;9.160;2023-01-20T04:49:58;0.50;99.90
1301;DHT22;59099;48.806;9.160;2023-01-20T04:52:25;0.50;99.90
1301;DHT22;59099;48.806;9.160;2023-01-20T04:54:51;0.60;99.90
1301;DHT22;59099;48.806;9.160;2023-01-20T04:57:16;0.70;99.90
1301;DHT22;59099;48.806;9.160;2023-01-20T04:59:42;0.70;99.90
1301;DHT22;59099;48.806;9.160;2023-01-20T05:02:08;0.70;99.90
1301;DHT22;59099;48.806;9.160;2023-01-20T05:04:34;0.70;99.90
1301;DHT22;59099;48.806;9.160;2023-01-20T05:07:02;0.70;99.90
1301;DHT22;59099;48.806;9.160;2023-01-20T05:09:29;0.60;99.90
1301;DHT22;59099;48.806;9.160;2023-01-20T05:11:55;0.60;99.90
1301;DHT22;59099;48.806;9.160;2023-01-20T05:14:21;0.60;99.90
1301;DHT22;59099;48.806;9.160;2023-01-20T05:16:47;0.70;99.90
1301;DHT22;59099;48.806;9.160;2023-01-20T05:19:14;0.70;99.90
1301;DHT22;59099;48.806;9.160;2023-01-20T05:21:40;0.70;99.90
1301;DHT22;59099;48.806;9.160;2023-01-20T05:24:07;0.70;99.90
1301;DHT22;59099;48.806;9.160;2023-01-20T05:26:33;0.80;99.90
1301;DHT22;59099;48.806;9.160;2023-01-20T05:28:59;0.70;99.90
1301;DHT22;59099;48.806;9.160;2023-01-20T05:31:27;0.80;99.90
1301;DHT22;59099;48.806;9.160;2023-01-20T05:33:53;0.80;99.90
1301;DHT22;59099;48.806;9.160;2023-01-20T05:36:20;0.80;99.90
1301;DHT22;59099;48.806;9.160;2023-01-20T05:38:47;0.80;99.90
1301;DHT22;59099;48.806;9.160;2023-01-20T05:41:13;0.80;99.90
1301;DHT22;59099;48.806;9.160;2023-01-20T05:43:39;0.80;99.90
1301;DHT22;59099;48.806;9.160;2023-01-20T05:46:05;0.90;99.90
1301;DHT22;59099;48.806;9.160;2023-01-20T05:48:31;1.00;99.90
1301;DHT22;59099;48.806;9.160;2023-01-20T05:50:57;1.00;99.90
1301;DHT22;59099;48.806;9.160;2023-01-20T05:53:23;0.90;99.90
1301;DHT22;59099;48.806;9.160;2023-01-20T05:55:49;0.90;99.90
1301;DHT22;59099;48.806;9.160;2023-01-20T05:58:15;1.00;99.90
1301;DHT22;59099;48.806;9.160;2023-01-20T06:00:41;0.90;99.90
1301;DHT22;59099;48.806;9.160;2023-01-20T06:03:07;1.00;99.90
1301;DHT22;59099;48.806;9.160;2023-01-20T06:05:33;0.90;99.90
1301;DHT22;59099;48.806;9.160;2023-01-20T06:07:58;0.90;99.90
1301;DHT22;59099;48.806;9.160;2023-01-20T06:10:25;0.90;99.90
1301;DHT22;59099;48.806;9.160;2023-01-20T06:12:53;0.80;99.90
1301;DHT22;59099;48.806;9.160;2023-01-20T06:15:22;0.80;99.90
1301;DHT22;59099;48.806;9.160;2023-01-20T06:17:51;0.70;99.90
1301;DHT22;59099;48.806;9.160;2023-01-20T06:20:19;0.70;99.90
1301;DHT22;59099;48.806;9.160;2023-01-20T06:22:45;0.60;99.90
1301;DHT22;59099;48.806;9.160;2023-01-20T06:25:12;0.70;99.90
1301;DHT22;59099;48.806;9.160;2023-01-20T06:27:37;0.70;99.90
1301;DHT22;59099;48.806;9.160;2023-01-20T06:30:04;0.80;99.90
1301;DHT22;59099;48.806;9.160;2023-01-20T06:32:31;0.70;99.90
1301;DHT22;59099;48.806;9.160;2023-01-20T06:34:56;0.80;99.90
1301;DHT22;59099;48.806;9.160;2023-01-20T06:37:23;0.80;99.90
1301;DHT22;59099;48.806;9.160;2023-01-20T06:39:49;0.70;99.90
1301;DHT22;59099;48.806;9.160;2023-01-20T06:42:15;0.70;99.90
1301;DHT22;59099;48.806;9.160;2023-01-20T06:44:41;0.60;99.90
1301;DHT22;59099;48.806;9.160;2023-01-20T06:47:07;0.70;99.90
1301;DHT22;59099;48.806;9.160;2023-01-20T06:49:33;0.60;99.90
1301;DHT22;59099;48.806;9.160;2023-01-20T06:51:59;0.50;99.90
1301;DHT22;59099;48.806;9.160;2023-01-20T06:54:25;0.50;99.90
1301;DHT22;59099;48.806;9.160;2023-01-20T06:56:51;0.50;99.90
1301;DHT22;59099;48.806;9.160;2023-01-20T06:59:17;0.50;99.90
1301;DHT22;59099;48.806;9.160;2023-01-20T07:01:43;0.50;99.90
1301;DHT22;59099;48.806;9.160;2023-01-20T07:04:12;0.50;99.90
1301;DHT22;59099;48.806;9.160;2023-01-20T07:06:39;0.50;99.90
1301;DHT22;59099;48.806;9.160;2023-01-20T07:09:09;0.50;99.90
1301;DHT22;59099;48.806;9.160;2023-01-20T07:11:39;0.40;99.90
1301;DHT22;59099;48.806;9.160;2023-01-20T07:14:06;0.50;99.90
1301;DHT22;59099;48.806;9.160;2023-01-20T07:16:36;0.50;99.90
1301;DHT22;59099;48.806;9.160;2023-01-20T07:19:02;0.50;99.90
1301;DHT22;59099;48.806;9.160;2023-01-20T07:21:28;0.50;99.90
1301;DHT22;59099;48.806;9.160;2023-01-20T07:23:54;0.60;99.90
1301;DHT22;59099;48.806;9.160;2023-01-20T07:26:22;0.50;99.90
1301;DHT22;59099;48.806;9.160;2023-01-20T07:28:49;0.50;99.90
1301;DHT22;59099;48.806;9.160;2023-01-20T07:31:22;0.40;99.90
1301;DHT22;59099;48.806;9.160;2023-01-20T07:33:49;0.50;99.90
1301;DHT22;59099;48.806;9.160;2023-01-20T07:36:16;0.50;99.90
1301;DHT22;59099;48.806;9.160;2023-01-20T07:38:46;0.60;99.90
1301;DHT22;59099;48.806;9.160;2023-01-20T07:41:12;0.70;99.90
1301;DHT22;59099;48.806;9.160;2023-01-20T07:43:43;0.80;99.90
1301;DHT22;59099;48.806;9.160;2023-01-20T07:46:10;0.80;99.90
1301;DHT22;59099;48.806;9.160;2023-01-20T07:48:37;0.80;99.90
1301;DHT22;59099;48.806;9.160;2023-01-20T07:51:09;0.80;99.90
1301;DHT22;59099;48.806;9.160;2023-01-20T07:53:41;0.90;99.90
1301;DHT22;59099;48.806;9.160;2023-01-20T07:58:42;1.00;99.90
1301;DHT22;59099;48.806;9.160;2023-01-20T08:03:37;1.00;99.90
1301;DHT22;59099;48.806;9.160;2023-01-20T08:06:05;1.00;99.90
1301;DHT22;59099;48.806;9.160;2023-01-20T08:08:32;1.10;99.90
1301;DHT22;59099;48.806;9.160;2023-01-20T08:10:58;1.10;99.90
1301;DHT22;59099;48.806;9.160;2023-01-20T08:13:26;1.20;99.90
1301;DHT22;59099;48.806;9.160;2023-01-20T08:15:53;1.20;99.90
1301;DHT22;59099;48.806;9.160;2023-01-20T08:18:19;1.20;99.90
1301;DHT22;59099;48.806;9.160;2023-01-20T08:20:44;1.20;99.90
1301;DHT22;59099;48.806;9.160;2023-01-20T08:23:10;1.20;99.90
1301;DHT22;59099;48.806;9.160;2023-01-20T08:25:36;1.20;99.90
1301;DHT22;59099;48.806;9.160;2023-01-20T08:28:02;1.30;99.90
1301;DHT22;59099;48.806;9.160;2023-01-20T08:30:28;1.30;99.90
1301;DHT22;59099;48.806;9.160;2023-01-20T08:32:54;1.40;99.90
1301;DHT22;59099;48.806;9.160;2023-01-20T08:35:21;1.40;99.90
1301;DHT22;59099;48.806;9.160;2023-01-20T08:37:46;1.40;99.90
1301;DHT22;59099;48.806;9.160;2023-01-20T08:40:12;1.40;99.90
1301;DHT22;59099;48.806;9.160;2023-01-20T08:42:38;1.40;99.90
1301;DHT22;59099;48.806;9.160;2023-01-20T08:45:06;1.40;99.90
1301;DHT22;59099;48.806;9.160;2023-01-20T08:53:45;1.30;99.90
1301;DHT22;59099;48.806;9.160;2023-01-20T08:56:12;1.40;99.90
1301;DHT22;59099;48.806;9.160;2023-01-20T08:58:39;1.40;99.90
1301;DHT22;59099;48.806;9.160;2023-01-20T09:01:16;1.50;99.90
1301;DHT22;59099;48.806;9.160;2023-01-20T09:03:42;1.60;99.90
1301;DHT22;59099;48.806;9.160;2023-01-20T09:06:09;1.70;99.90
1301;DHT22;59099;48.806;9.160;2023-01-20T09:08:35;1.80;99.90
1301;DHT22;59099;48.806;9.160;2023-01-20T09:13:32;1.90;99.90
1301;DHT22;59099;48.806;9.160;2023-01-20T09:15:58;2.00;99.90
1301;DHT22;59099;48.806;9.160;2023-01-20T09:18:23;2.10;99.90
1301;DHT22;59099;48.806;9.160;2023-01-20T09:20:49;2.20;99.90
1301;DHT22;59099;48.806;9.160;2023-01-20T09:23:15;2.20;99.90
1301;DHT22;59099;48.806;9.160;2023-01-20T09:25:41;2.40;99.90
1301;DHT22;59099;48.806;9.160;2023-01-20T09:28:07;2.40;99.90
1301;DHT22;59099;48.806;9.160;2023-01-20T09:30:33;2.50;99.90
1301;DHT22;59099;48.806;9.160;2023-01-20T09:32:59;2.50;99.90
1301;DHT22;59099;48.806;9.160;2023-01-20T09:35:25;2.50;99.90
1301;DHT22;59099;48.806;9.160;2023-01-20T09:37:52;2.60;99.90
1301;DHT22;59099;48.806;9.160;2023-01-20T09:41:05;2.50;99.90
1301;DHT22;59099;48.806;9.160;2023-01-20T09:53:32;3.00;99.90
1301;DHT22;59099;48.806;9.160;2023-01-20T10:01:41;3.20;99.90
1301;DHT22;59099;48.806;9.160;2023-01-20T10:04:16;3.30;99.90
1301;DHT22;59099;48.806;9.160;2023-01-20T10:07:00;3.40;99.90
1301;DHT22;59099;48.806;9.160;2023-01-20T10:20:08;3.20;99.90
1301;DHT22;59099;48.806;9.160;2023-01-20T10:23:06;3.90;99.90
1301;DHT22;59099;48.806;9.160;2023-01-20T10:25:37;4.90;99.90
1301;DHT22;59099;48.806;9.160;2023-01-20T10:28:25;4.70;99.90
1301;DHT22;59099;48.806;9.160;2023-01-20T10:30:51;4.40;99.90
1301;DHT22;59099;48.806;9.160;2023-01-20T10:33:25;4.30;99.90
1301;DHT22;59099;48.806;9.160;2023-01-20T10:35:53;4.20;99.90
1301;DHT22;59099;48.806;9.160;2023-01-20T10:39:00;4.40;99.90
1301;DHT22;59099;48.806;9.160;2023-01-20T10:41:36;4.50;99.90
1301;DHT22;59099;48.806;9.160;2023-01-20T10:44:12;4.50;99.90
1301;DHT22;59099;48.806;9.160;2023-01-20T10:47:10;4.30;99.90
1301;DHT22;59099;48.806;9.160;2023-01-20T10:57:36;6.00;99.90
1301;DHT22;59099;48.806;9.160;2023-01-20T11:00:21;6.70;99.90
1301;DHT22;59099;48.806;9.160;2023-01-20T11:02:48;6.50;99.90
1301;DHT22;59099;48.806;9.160;2023-01-20T11:05:24;6.20;99.90
1301;DHT22;59099;48.806;9.160;2023-01-20T11:07:51;6.30;99.90
1301;DHT22;59099;48.806;9.160;2023-01-20T11:10:21;6.10;99.90
1301;DHT22;59099;48.806;9.160;2023-01-20T11:12:54;7.00;99.90
1301;DHT22;59099;48.806;9.160;2023-01-20T11:15:24;9.20;99.90
1301;DHT22;59099;48.806;9.160;2023-01-20T11:20:51;12.30;99.90
1301;DHT22;59099;48.806;9.160;2023-01-20T11:26:07;14.10;93.50
1301;DHT22;59099;48.806;9.160;2023-01-20T11:31:19;15.90;91.20
1301;DHT22;59099;48.806;9.160;2023-01-20T11:33:57;17.10;80.30
1301;DHT22;59099;48.806;9.160;2023-01-20T11:36:24;17.30;72.10
1301;DHT22;59099;48.806;9.160;2023-01-20T11:38:52;17.90;69.50
1301;DHT22;59099;48.806;9.160;2023-01-20T11:43:46;17.90;64.70
1301;DHT22;59099;48.806;9.160;2023-01-20T11:46:33;18.30;73.10
1301;DHT22;59099;48.806;9.160;2023-01-20T11:49:18;17.70;58.80
1301;DHT22;59099;48.806;9.160;2023-01-20T11:51:54;17.80;64.30
1301;DHT22;59099;48.806;9.160;2023-01-20T11:54:26;17.00;59.80
1301;DHT22;59099;48.806;9.160;2023-01-20T11:56:59;16.20;66.10
1301;DHT22;59099;48.806;9.160;2023-01-20T11:59:28;15.60;59.60
1301;DHT22;59099;48.806;9.160;2023-01-20T12:02:01;15.10;59.10
1301;DHT22;59099;48.806;9.160;2023-01-20T12:10:29;12.70;62.40
1301;DHT22;59099;48.806;9.160;2023-01-20T12:13:03;11.80;68.00
1301;DHT22;59099;48.806;9.160;2023-01-20T12:15:36;10.90;73.50
1301;DHT22;59099;48.806;9.160;2023-01-20T12:20:54;11.60;80.60
1301;DHT22;59099;48.806;9.160;2023-01-20T12:28:30;12.70;68.70
1301;DHT22;59099;48.806;9.160;2023-01-20T12:31:03;12.30;72.40
1301;DHT22;59099;48.806;9.160;2023-01-20T12:33:37;11.80;72.10
1301;DHT22;59099;48.806;9.160;2023-01-20T12:38:55;9.50;77.40
1301;DHT22;59099;48.806;9.160;2023-01-20T12:42:04;8.50;79.90
1301;DHT22;59099;48.806;9.160;2023-01-20T12:44:45;7.90;83.20
1301;DHT22;59099;48.806;9.160;2023-01-20T12:55:42;5.90;94.00
1301;DHT22;59099;48.806;9.160;2023-01-20T13:14:37;5.10;99.00
1301;DHT22;59099;48.806;9.160;2023-01-20T13:17:27;4.90;99.50
1301;DHT22;59099;48.806;9.160;2023-01-20T13:19:58;4.80;99.70
1301;DHT22;59099;48.806;9.160;2023-01-20T13:22:26;4.80;99.90
1301;DHT22;59099;48.806;9.160;2023-01-20T13:24:54;4.70;99.90
1301;DHT22;59099;48.806;9.160;2023-01-20T13:27:33;4.70;99.90
1301;DHT22;59099;48.806;9.160;2023-01-20T13:30:02;4.60;99.90
1301;DHT22;59099;48.806;9.160;2023-01-20T13:32:30;4.60;99.90
1301;DHT22;59099;48.806;9.160;2023-01-20T13:34:57;4.70;99.90
1301;DHT22;59099;48.806;9.160;2023-01-20T13:37:32;4.70;99.90
1301;DHT22;59099;48.806;9.160;2023-01-20T13:39:59;4.70;99.90
1301;DHT22;59099;48.806;9.160;2023-01-20T13:48:32;4.70;99.90
1301;DHT22;59099;48.806;9.160;2023-01-20T13:50:42;4.70;99.90
1301;DHT22;59099;48.806;9.160;2023-01-20T13:58:21;4.50;99.90
1301;DHT22;59099;48.806;9.160;2023-01-20T14:01:10;4.50;99.90
1301;DHT22;59099;48.806;9.160;2023-01-20T14:03:39;4.60;99.90
1301;DHT22;59099;48.806;9.160;2023-01-20T14:13:40;4.40;99.90
1301;DHT22;59099;48.806;9.160;2023-01-20T14:16:38;4.40;99.90
1301;DHT22;59099;48.806;9.160;2023-01-20T14:19:22;4.40;99.90
1301;DHT22;59099;48.806;9.160;2023-01-20T14:21:53;4.30;99.90
1301;DHT22;59099;48.806;9.160;2023-01-20T14:24:31;4.30;99.90
1301;DHT22;59099;48.806;9.160;2023-01-20T14:27:23;4.20;99.90
1301;DHT22;59099;48.806;9.160;2023-01-20T14:29:51;4.10;99.90
1301;DHT22;59099;48.806;9.160;2023-01-20T14:34:53;4.20;99.90
1301;DHT22;59099;48.806;9.160;2023-01-20T14:39:49;4.30;99.90
1301;DHT22;59099;48.806;9.160;2023-01-20T14:42:17;4.30;99.90
1301;DHT22;59099;48.806;9.160;2023-01-20T14:44:46;4.40;99.90
1301;DHT22;59099;48.806;9.160;2023-01-20T14:47:13;4.40;99.90
1301;DHT22;59099;48.806;9.160;2023-01-20T14:49:39;4.60;99.90
1301;DHT22;59099;48.806;9.160;2023-01-20T14:54:47;5.50;99.90
1301;DHT22;59099;48.806;9.160;2023-01-20T14:57:19;6.10;99.90
1301;DHT22;59099;48.806;9.160;2023-01-20T14:59:47;6.60;99.90
1301;DHT22;59099;48.806;9.160;2023-01-20T15:02:30;7.20;99.90
1301;DHT22;59099;48.806;9.160;2023-01-20T15:04:57;7.20;99.90
1301;DHT22;59099;48.806;9.160;2023-01-20T15:07:23;6.90;99.90
1301;DHT22;59099;48.806;9.160;2023-01-20T15:09:58;7.00;99.90
1301;DHT22;59099;48.806;9.160;2023-01-20T15:18:02;6.60;99.90
1301;DHT22;59099;48.806;9.160;2023-01-20T15:20:31;6.20;99.90
1301;DHT22;59099;48.806;9.160;2023-01-20T15:23:00;5.80;99.90
1301;DHT22;59099;48.806;9.160;2023-01-20T15:25:26;5.60;99.90
1301;DHT22;59099;48.806;9.160;2023-01-20T15:27:54;5.60;99.90
1301;DHT22;59099;48.806;9.160;2023-01-20T15:30:23;5.60;99.90
1301;DHT22;59099;48.806;9.160;2023-01-20T15:32:52;5.60;99.90
1301;DHT22;59099;48.806;9.160;2023-01-20T15:35:21;5.40;99.90
1301;DHT22;59099;48.806;9.160;2023-01-20T15:37:50;5.10;99.90
1301;DHT22;59099;48.806;9.160;2023-01-20T15:40:21;4.70;99.90
1301;DHT22;59099;48.806;9.160;2023-01-20T15:42:48;4.30;99.90
1301;DHT22;59099;48.806;9.160;2023-01-20T15:45:15;4.10;99.90
1301;DHT22;59099;48.806;9.160;2023-01-20T15:47:43;3.70;99.90
1301;DHT22;59099;48.806;9.160;2023-01-20T15:50:23;3.40;99.90
1301;DHT22;59099;48.806;9.160;2023-01-20T15:52:49;2.90;99.90
1301;DHT22;59099;48.806;9.160;2023-01-20T15:55:16;2.70;99.90
1301;DHT22;59099;48.806;9.160;2023-01-20T15:57:48;2.40;99.90
1301;DHT22;59099;48.806;9.160;2023-01-20T16:00:20;2.30;99.90
1301;DHT22;59099;48.806;9.160;2023-01-20T16:02:47;2.20;99.90
1301;DHT22;59099;48.806;9.160;2023-01-20T16:05:13;2.00;99.90
1301;DHT22;59099;48.806;9.160;2023-01-20T16:07:41;1.90;99.90
1301;DHT22;59099;48.806;9.160;2023-01-20T16:10:18;1.80;99.90
1301;DHT22;59099;48.806;9.160;2023-01-20T16:12:45;1.70;99.90
1301;DHT22;59099;48.806;9.160;2023-01-20T16:15:16;1.60;99.90
1301;DHT22;59099;48.806;9.160;2023-01-20T16:17:43;1.50;99.90
1301;DHT22;59099;48.806;9.160;2023-01-20T16:20:21;1.30;99.90
1301;DHT22;59099;48.806;9.160;2023-01-20T16:22:47;1.30;99.90
1301;DHT22;59099;48.806;9.160;2023-01-20T16:25:14;1.20;99.90
1301;DHT22;59099;48.806;9.160;2023-01-20T16:27:40;1.10;99.90
1301;DHT22;59099;48.806;9.160;2023-01-20T16:30:19;1.10;99.90
1301;DHT22;59099;48.806;9.160;2023-01-20T16:32:46;1.00;99.90
1301;DHT22;59099;48.806;9.160;2023-01-20T16:35:13;1.00;99.90
1301;DHT22;59099;48.806;9.160;2023-01-20T16:37:40;0.90;99.90
1301;DHT22;59099;48.806;9.160;2023-01-20T16:40:13;0.80;99.90
1301;DHT22;59099;48.806;9.160;2023-01-20T16:42:39;0.80;99.90
1301;DHT22;59099;48.806;9.160;2023-01-20T16:45:07;0.80;99.90
1301;DHT22;59099;48.806;9.160;2023-01-20T16:47:39;0.70;99.90
1301;DHT22;59099;48.806;9.160;2023-01-20T16:50:05;0.60;99.90
1301;DHT22;59099;48.806;9.160;2023-01-20T16:52:31;0.50;99.90
1301;DHT22;59099;48.806;9.160;2023-01-20T16:54:57;0.50;99.90
1301;DHT22;59099;48.806;9.160;2023-01-20T16:57:23;0.50;99.90
1301;DHT22;59099;48.806;9.160;2023-01-20T16:59:49;0.50;99.90
1301;DHT22;59099;48.806;9.160;2023-01-20T17:02:15;0.40;99.90
1301;DHT22;59099;48.806;9.160;2023-01-20T17:04:41;0.40;99.90
1301;DHT22;59099;48.806;9.160;2023-01-20T17:07:07;0.40;99.90
1301;DHT22;59099;48.806;9.160;2023-01-20T17:09:34;0.30;99.90
1301;DHT22;59099;48.806;9.160;2023-01-20T17:12:00;0.20;99.90
1301;DHT22;59099;48.806;9.160;2023-01-20T17:14:25;0.10;99.90
1301;DHT22;59099;48.806;9.160;2023-01-20T17:16:51;0.10;99.90
1301;DHT22;59099;48.806;9.160;2023-01-20T17:19:18;0.00;99.90
1301;DHT22;59099;48.806;9.160;2023-01-20T17:21:44;0.00;99.90
1301;DHT22;59099;48.806;9.160;2023-01-20T17:24:13;0.00;99.90
1301;DHT22;59099;48.806;9.160;2023-01-20T17:26:39;-0.10;99.90
1301;DHT22;59099;48.806;9.160;2023-01-20T17:29:05;-0.10;99.90
1301;DHT22;59099;48.806;9.160;2023-01-20T17:31:32;0.00;99.90
1301;DHT22;59099;48.806;9.160;2023-01-20T17:34:10;-0.10;99.90
1301;DHT22;59099;48.806;9.160;2023-01-20T17:36:36;-0.10;99.90
1301;DHT22;59099;48.806;9.160;2023-01-20T17:39:04;-0.10;99.90
1301;DHT22;59099;48.806;9.160;2023-01-20T17:41:31;-0.20;99.90
1301;DHT22;59099;48.806;9.160;2023-01-20T17:43:58;-0.20;99.90
1301;DHT22;59099;48.806;9.160;2023-01-20T17:46:27;-0.30;99.90
1301;DHT22;59099;48.806;9.160;2023-01-20T17:48:55;-0.40;99.90
1301;DHT22;59099;48.806;9.160;2023-01-20T17:51:24;-0.40;99.90
1301;DHT22;59099;48.806;9.160;2023-01-20T17:53:51;-0.40;99.90
1301;DHT22;59099;48.806;9.160;2023-01-20T17:56:18;-0.40;99.90
1301;DHT22;59099;48.806;9.160;2023-01-20T17:58:46;-0.50;99.90
1301;DHT22;59099;48.806;9.160;2023-01-20T18:01:22;-0.50;99.90
1301;DHT22;59099;48.806;9.160;2023-01-20T18:03:50;-0.50;99.90
1301;DHT22;59099;48.806;9.160;2023-01-20T18:06:18;-0.50;99.90
1301;DHT22;59099;48.806;9.160;2023-01-20T18:08:55;-0.50;99.90
1301;DHT22;59099;48.806;9.160;2023-01-20T18:11:22;-0.50;99.90
1301;DHT22;59099;48.806;9.160;2023-01-20T18:13:50;-0.50;99.90
1301;DHT22;59099;48.806;9.160;2023-01-20T18:16:18;-0.60;99.90
1301;DHT22;59099;48.806;9.160;2023-01-20T18:18:45;-0.70;99.90
1301;DHT22;59099;48.806;9.160;2023-01-20T18:21:13;-0.80;99.90
1301;DHT22;59099;48.806;9.160;2023-01-20T18:23:39;-0.80;99.90
1301;DHT22;59099;48.806;9.160;2023-01-20T18:26:07;-0.80;99.90
1301;DHT22;59099;48.806;9.160;2023-01-20T18:28:34;-0.70;99.90
1301;DHT22;59099;48.806;9.160;2023-01-20T18:31:01;-0.70;99.90
1301;DHT22;59099;48.806;9.160;2023-01-20T18:34:15;-0.70;99.90
1301;DHT22;59099;48.806;9.160;2023-01-20T18:41:30;-0.70;99.90
1301;DHT22;59099;48.806;9.160;2023-01-20T18:43:57;-0.70;99.90
1301;DHT22;59099;48.806;9.160;2023-01-20T18:46:23;-0.60;99.90
1301;DHT22;59099;48.806;9.160;2023-01-20T18:48:49;-0.50;99.90
1301;DHT22;59099;48.806;9.160;2023-01-20T18:51:22;-0.50;99.90
1301;DHT22;59099;48.806;9.160;2023-01-20T18:54:01;-0.40;99.90
1301;DHT22;59099;48.806;9.160;2023-01-20T18:56:31;-0.40;99.90
1301;DHT22;59099;48.806;9.160;2023-01-20T18:59:01;-0.50;99.90